createdAt,value
2018-11-23T00:00:18.426Z,7.60
2018-11-23T00:02:46.809Z,7.60
2018-11-23T00:05:14.687Z,7.60
2018-11-23T00:07:42.741Z,7.50
2018-11-23T00:10:12.313Z,7.60
2018-11-23T00:12:39.939Z,7.50
2018-11-23T00:15:09.490Z,7.50
2018-11-23T00:17:37.359Z,7.50
2018-11-23T00:20:08.001Z,7.50
2018-11-23T00:22:35.787Z,7.50
2018-11-23T00:25:11.861Z,7.50
2018-11-23T00:27:39.824Z,7.40
2018-11-23T00:30:12.468Z,7.40
2018-11-23T00:32:40.374Z,7.40
2018-11-23T00:35:09.768Z,7.40
2018-11-23T00:37:37.503Z,7.40
2018-11-23T00:40:07.285Z,7.40
2018-11-23T00:42:34.968Z,7.40
2018-11-23T00:45:02.867Z,7.40
2018-11-23T00:47:31.442Z,7.40
2018-11-23T00:49:59.157Z,7.40
2018-11-23T00:52:27.044Z,7.40
2018-11-23T00:54:54.679Z,7.40
2018-11-23T00:57:22.419Z,7.40
2018-11-23T00:59:50.341Z,7.30
2018-11-23T01:02:17.924Z,7.40
2018-11-23T01:04:45.561Z,7.30
2018-11-23T01:07:13.220Z,7.40
2018-11-23T01:09:41.216Z,7.40
2018-11-23T01:12:08.874Z,7.30
2018-11-23T01:14:36.564Z,7.30
2018-11-23T01:17:04.450Z,7.30
2018-11-23T01:19:32.231Z,7.30
2018-11-23T01:22:00.061Z,7.30
2018-11-23T01:24:27.799Z,7.30
2018-11-23T01:26:55.451Z,7.30
2018-11-23T01:29:23.184Z,7.30
2018-11-23T01:31:50.896Z,7.20
2018-11-23T01:34:18.504Z,7.30
2018-11-23T01:36:46.393Z,7.30
2018-11-23T01:39:14.078Z,7.30
2018-11-23T01:41:41.739Z,7.20
2018-11-23T01:44:09.444Z,7.20
2018-11-23T01:46:37.226Z,7.20
2018-11-23T01:49:05.065Z,7.20
2018-11-23T01:51:32.827Z,7.20
2018-11-23T01:54:00.639Z,7.20
2018-11-23T01:56:28.320Z,7.20
2018-11-23T01:58:56.033Z,7.20
2018-11-23T02:01:24.058Z,7.20
2018-11-23T02:03:51.971Z,7.10
2018-11-23T02:06:19.700Z,7.10
2018-11-23T02:08:48.641Z,7.20
2018-11-23T02:11:16.379Z,7.10
2018-11-23T02:13:44.157Z,7.10
2018-11-23T02:16:11.637Z,7.10
2018-11-23T02:18:39.264Z,7.10
2018-11-23T02:21:07.086Z,7.10
2018-11-23T02:23:34.782Z,7.10
2018-11-23T02:26:02.377Z,7.10
2018-11-23T02:28:30.368Z,7.10
2018-11-23T02:31:02.644Z,7.10
2018-11-23T02:33:30.525Z,7.10
2018-11-23T02:35:58.368Z,7.10
2018-11-23T02:38:26.072Z,7.10
2018-11-23T02:40:53.774Z,7.10
2018-11-23T02:43:21.404Z,7.10
2018-11-23T02:45:49.056Z,7.00
2018-11-23T02:48:16.727Z,7.00
2018-11-23T02:50:44.391Z,7.00
2018-11-23T02:53:12.097Z,7.00
2018-11-23T02:55:39.688Z,7.00
2018-11-23T02:58:07.358Z,7.00
2018-11-23T03:00:34.998Z,7.00
2018-11-23T03:03:03.318Z,7.00
2018-11-23T03:05:30.947Z,6.50
2018-11-23T03:07:58.667Z,7.00
2018-11-23T03:10:26.423Z,7.00
2018-11-23T03:12:54.265Z,7.00
2018-11-23T03:15:22.274Z,7.00
2018-11-23T03:17:50.338Z,7.00
2018-11-23T03:20:19.241Z,7.00
2018-11-23T03:22:47.083Z,7.00
2018-11-23T03:25:15.204Z,6.90
2018-11-23T03:27:42.918Z,6.90
2018-11-23T03:30:14.077Z,6.90
2018-11-23T03:32:42.019Z,6.90
2018-11-23T03:35:09.766Z,6.90
2018-11-23T03:37:37.646Z,6.90
2018-11-23T03:40:06.835Z,6.90
2018-11-23T03:42:34.534Z,6.90
2018-11-23T03:45:02.847Z,6.90
2018-11-23T03:47:30.537Z,6.80
2018-11-23T03:49:58.200Z,6.80
2018-11-23T03:52:25.862Z,6.80
2018-11-23T03:54:53.407Z,6.80
2018-11-23T03:57:21.084Z,6.80
2018-11-23T03:59:48.781Z,6.80
2018-11-23T04:02:16.608Z,6.80
2018-11-23T04:04:44.759Z,6.80
2018-11-23T04:07:12.795Z,6.80
2018-11-23T04:09:40.965Z,6.80
2018-11-23T04:12:08.994Z,6.80
2018-11-23T04:14:38.115Z,6.80
2018-11-23T04:17:06.314Z,6.80
2018-11-23T04:19:34.307Z,6.80
2018-11-23T04:22:02.781Z,6.80
2018-11-23T04:24:31.165Z,6.80
2018-11-23T04:26:59.183Z,6.80
2018-11-23T04:29:27.605Z,6.80
2018-11-23T04:31:56.634Z,6.80
2018-11-23T04:34:25.351Z,6.70
2018-11-23T04:36:53.582Z,6.70
2018-11-23T04:39:22.162Z,6.80
2018-11-23T04:41:51.246Z,6.80
2018-11-23T04:44:19.569Z,6.80
2018-11-23T04:46:48.157Z,6.70
2018-11-23T04:49:16.590Z,6.80
2018-11-23T04:51:44.834Z,6.80
2018-11-23T04:54:13.048Z,6.80
2018-11-23T04:56:41.371Z,6.70
2018-11-23T04:59:09.487Z,6.80
2018-11-23T05:01:37.935Z,6.80
2018-11-23T05:04:06.042Z,6.80
2018-11-23T05:06:34.298Z,6.80
2018-11-23T05:09:03.006Z,6.80
2018-11-23T05:11:31.116Z,6.80
2018-11-23T05:13:59.083Z,6.80
2018-11-23T05:16:27.030Z,6.80
2018-11-23T05:18:54.994Z,6.80
2018-11-23T05:21:23.179Z,6.90
2018-11-23T05:23:50.966Z,6.80
2018-11-23T05:26:18.807Z,6.80
2018-11-23T05:28:46.487Z,6.90
2018-11-23T05:31:14.264Z,6.90
2018-11-23T05:33:42.329Z,6.90
2018-11-23T05:36:10.256Z,6.90
2018-11-23T05:38:38.380Z,6.90
2018-11-23T05:41:06.356Z,6.90
2018-11-23T05:43:34.365Z,6.90
2018-11-23T05:46:02.706Z,6.90
2018-11-23T05:48:30.902Z,6.90
2018-11-23T05:50:59.054Z,6.90
2018-11-23T05:53:27.533Z,6.90
2018-11-23T05:55:55.880Z,6.90
2018-11-23T05:58:25.243Z,6.90
2018-11-23T06:00:53.391Z,6.90
2018-11-23T06:03:21.692Z,6.90
2018-11-23T06:05:49.873Z,6.90
2018-11-23T06:08:18.233Z,6.90
2018-11-23T06:10:46.142Z,6.90
2018-11-23T06:13:14.119Z,6.90
2018-11-23T06:15:44.625Z,6.90
2018-11-23T06:18:10.254Z,6.90
2018-11-23T06:20:38.728Z,6.90
2018-11-23T06:23:06.875Z,6.90
2018-11-23T06:25:40.240Z,6.90
2018-11-23T06:28:08.731Z,6.90
2018-11-23T06:30:37.172Z,6.90
2018-11-23T06:33:16.616Z,6.90
2018-11-23T06:35:45.059Z,6.80
2018-11-23T06:38:13.438Z,6.90
2018-11-23T06:40:41.800Z,6.90
2018-11-23T06:43:10.429Z,6.80
2018-11-23T06:45:40.848Z,6.90
2018-11-23T06:48:09.911Z,6.90
2018-11-23T06:50:37.809Z,6.80
2018-11-23T06:53:06.896Z,6.90
2018-11-23T06:55:36.441Z,6.80
2018-11-23T06:58:08.107Z,6.80
2018-11-23T07:00:36.797Z,6.90
2018-11-23T07:03:05.145Z,6.80
2018-11-23T07:05:34.032Z,6.80
2018-11-23T07:08:02.516Z,6.90
2018-11-23T07:10:30.825Z,6.90
2018-11-23T07:12:59.078Z,6.80
2018-11-23T07:15:27.821Z,6.80
2018-11-23T07:17:56.202Z,6.80
2018-11-23T07:20:24.219Z,6.80
2018-11-23T07:22:52.649Z,6.80
2018-11-23T07:25:20.830Z,6.80
2018-11-23T07:27:49.005Z,6.80
2018-11-23T07:30:22.529Z,6.80
2018-11-23T07:32:50.750Z,6.80
2018-11-23T07:35:19.023Z,6.80
2018-11-23T07:37:47.484Z,6.80
2018-11-23T07:40:28.315Z,7.20
2018-11-23T07:42:56.487Z,6.80
2018-11-23T07:45:24.346Z,6.80
2018-11-23T07:47:52.075Z,6.80
2018-11-23T07:50:19.991Z,6.80
2018-11-23T07:52:47.700Z,6.80
2018-11-23T07:55:15.725Z,6.80
2018-11-23T07:57:45.193Z,6.80
2018-11-23T08:00:15.072Z,6.80
2018-11-23T08:02:43.260Z,6.90
2018-11-23T08:05:12.712Z,7.00
2018-11-23T08:07:40.454Z,6.90
2018-11-23T08:10:12.060Z,6.90
2018-11-23T08:12:41.260Z,6.90
2018-11-23T08:15:12.919Z,6.90
2018-11-23T08:17:40.869Z,7.50
2018-11-23T08:20:10.584Z,6.90
2018-11-23T08:22:38.445Z,6.90
2018-11-23T08:25:07.262Z,6.90
2018-11-23T08:27:35.129Z,6.90
2018-11-23T08:30:04.061Z,6.90
2018-11-23T08:32:31.697Z,6.90
2018-11-23T08:35:00.110Z,7.00
2018-11-23T08:37:28.179Z,7.00
2018-11-23T08:39:55.990Z,7.00
2018-11-23T08:42:23.684Z,7.00
2018-11-23T08:44:51.434Z,7.00
2018-11-23T08:47:19.146Z,7.00
2018-11-23T08:49:47.171Z,7.00
2018-11-23T08:52:14.995Z,7.10
2018-11-23T08:54:42.682Z,7.00
2018-11-23T08:57:10.377Z,7.10
2018-11-23T08:59:38.386Z,7.10
2018-11-23T09:02:06.171Z,7.10
2018-11-23T09:04:33.997Z,7.10
2018-11-23T09:07:01.760Z,7.10
2018-11-23T09:09:29.390Z,7.10
2018-11-23T09:11:57.041Z,7.20
2018-11-23T09:14:24.977Z,7.20
2018-11-23T09:16:55.163Z,7.20
2018-11-23T09:19:23.129Z,7.20
2018-11-23T09:21:51.104Z,7.20
2018-11-23T09:24:19.576Z,7.30
2018-11-23T09:26:47.657Z,7.30
2018-11-23T09:29:16.698Z,7.30
2018-11-23T09:31:44.987Z,7.30
2018-11-23T09:34:12.707Z,7.30
2018-11-23T09:36:40.805Z,7.30
2018-11-23T09:39:08.792Z,7.40
2018-11-23T09:41:36.800Z,7.40
2018-11-23T09:44:05.240Z,7.40
2018-11-23T09:46:33.181Z,7.40
2018-11-23T09:49:01.171Z,7.40
2018-11-23T09:51:29.419Z,7.50
2018-11-23T09:53:57.835Z,7.50
2018-11-23T09:56:25.850Z,7.50
2018-11-23T09:58:53.638Z,7.50
2018-11-23T10:01:22.050Z,7.60
2018-11-23T10:03:50.160Z,7.60
2018-11-23T10:06:18.076Z,7.60
2018-11-23T10:08:46.242Z,7.60
2018-11-23T10:11:14.491Z,7.70
2018-11-23T10:13:43.004Z,7.70
2018-11-23T10:16:10.808Z,7.70
2018-11-23T10:18:39.009Z,7.70
2018-11-23T10:21:07.426Z,7.80
2018-11-23T10:23:36.035Z,7.80
2018-11-23T10:26:04.294Z,7.80
2018-11-23T10:28:33.117Z,7.90
2018-11-23T10:31:01.907Z,7.90
2018-11-23T10:33:30.042Z,7.90
2018-11-23T10:35:58.669Z,8.30
2018-11-23T10:38:26.758Z,7.90
2018-11-23T10:40:55.090Z,8.00
2018-11-23T10:43:23.607Z,8.00
2018-11-23T10:45:51.627Z,8.00
2018-11-23T10:48:20.644Z,8.00
2018-11-23T10:50:48.613Z,8.10
2018-11-23T10:53:16.897Z,7.90
2018-11-23T10:55:45.400Z,8.10
2018-11-23T10:58:13.637Z,8.20
2018-11-23T11:00:47.653Z,8.20
2018-11-23T11:03:33.492Z,8.20
2018-11-23T11:06:11.812Z,8.00
2018-11-23T11:08:39.993Z,8.30
2018-11-23T11:11:08.226Z,8.30
2018-11-23T11:13:36.801Z,8.10
2018-11-23T11:16:09.140Z,8.40
2018-11-23T11:18:37.829Z,8.30
2018-11-23T11:21:05.789Z,8.30
2018-11-23T11:23:33.624Z,8.40
2018-11-23T11:26:01.496Z,8.40
2018-11-23T11:28:29.494Z,8.40
2018-11-23T11:30:57.211Z,8.50
2018-11-23T11:33:25.047Z,8.50
2018-11-23T11:35:52.738Z,8.50
2018-11-23T11:38:20.553Z,8.50
2018-11-23T11:40:49.468Z,8.60
2018-11-23T11:43:17.349Z,8.60
2018-11-23T11:45:45.064Z,8.60
2018-11-23T11:48:12.958Z,9.00
2018-11-23T11:50:40.686Z,8.70
2018-11-23T11:53:08.585Z,8.70
2018-11-23T11:55:36.800Z,8.70
2018-11-23T11:58:06.049Z,8.70
2018-11-23T12:00:33.884Z,8.80
2018-11-23T12:03:01.713Z,8.80
2018-11-23T12:05:29.401Z,8.90
2018-11-23T12:07:57.152Z,8.90
2018-11-23T12:10:25.677Z,8.90
2018-11-23T12:12:53.305Z,9.00
2018-11-23T12:15:21.137Z,9.00
2018-11-23T12:17:48.964Z,9.00
2018-11-23T12:20:19.178Z,9.10
2018-11-23T12:22:47.295Z,9.10
2018-11-23T12:25:15.055Z,9.10
2018-11-23T12:27:43.104Z,9.20
2018-11-23T12:30:13.231Z,9.20
2018-11-23T12:32:41.579Z,9.20
2018-11-23T12:35:10.584Z,9.20
2018-11-23T12:37:38.434Z,9.30
2018-11-23T12:40:08.001Z,9.30
2018-11-23T12:42:35.528Z,9.30
2018-11-23T12:45:03.221Z,9.30
2018-11-23T12:47:30.811Z,9.40
2018-11-23T12:49:58.594Z,9.40
2018-11-23T12:52:27.510Z,9.40
2018-11-23T12:54:55.777Z,9.40
2018-11-23T12:57:35.031Z,9.50
2018-11-23T13:00:02.785Z,9.50
2018-11-23T13:02:30.573Z,9.50
2018-11-23T13:04:59.046Z,9.60
2018-11-23T13:07:26.692Z,9.60
2018-11-23T13:09:54.472Z,9.60
2018-11-23T13:12:22.656Z,9.70
2018-11-23T13:14:50.712Z,9.70
2018-11-23T13:17:18.651Z,9.70
2018-11-23T13:19:46.333Z,9.70
2018-11-23T13:22:14.195Z,9.80
2018-11-23T13:24:41.901Z,9.80
2018-11-23T13:27:13.747Z,9.80
2018-11-23T13:29:41.565Z,9.80
2018-11-23T13:32:09.326Z,9.90
2018-11-23T13:34:37.097Z,9.90
2018-11-23T13:37:04.945Z,9.90
2018-11-23T13:39:32.879Z,9.90
2018-11-23T13:42:00.599Z,10.00
2018-11-23T13:44:28.494Z,10.00
2018-11-23T13:46:56.273Z,10.00
2018-11-23T13:49:24.198Z,10.00
2018-11-23T13:51:51.944Z,10.00
2018-11-23T13:54:19.620Z,10.00
2018-11-23T13:56:47.389Z,10.10
2018-11-23T13:59:15.074Z,10.10
2018-11-23T14:01:42.827Z,10.10
2018-11-23T14:04:10.547Z,10.10
2018-11-23T14:06:38.537Z,10.10
2018-11-23T14:09:09.150Z,10.10
2018-11-23T14:11:37.391Z,10.10
2018-11-23T14:14:05.961Z,10.20
2018-11-23T14:16:33.742Z,10.20
2018-11-23T14:19:01.526Z,10.20
2018-11-23T14:21:29.587Z,10.30
2018-11-23T14:23:57.451Z,10.20
2018-11-23T14:26:25.506Z,10.30
2018-11-23T14:28:53.423Z,10.30
2018-11-23T14:31:21.686Z,10.30
2018-11-23T14:33:49.663Z,10.30
2018-11-23T14:36:17.563Z,10.30
2018-11-23T14:38:45.444Z,10.30
2018-11-23T14:41:13.203Z,10.30
2018-11-23T14:43:40.946Z,10.30
2018-11-23T14:46:09.088Z,10.30
2018-11-23T14:48:37.037Z,10.40
2018-11-23T14:51:04.647Z,10.40
2018-11-23T14:53:32.457Z,10.40
2018-11-23T14:56:00.266Z,10.40
2018-11-23T14:58:28.022Z,10.40
2018-11-23T15:00:55.742Z,10.40
2018-11-23T15:03:24.139Z,10.40
2018-11-23T15:05:51.962Z,10.40
2018-11-23T15:08:19.685Z,10.30
2018-11-23T15:10:47.502Z,10.30
2018-11-23T15:13:15.226Z,10.30
2018-11-23T15:15:43.122Z,10.30
2018-11-23T15:18:10.821Z,10.30
2018-11-23T15:20:40.987Z,10.30
2018-11-23T15:23:14.491Z,10.30
2018-11-23T15:25:42.183Z,10.20
2018-11-23T15:28:10.918Z,10.20
2018-11-23T15:30:39.857Z,10.20
2018-11-23T15:33:09.963Z,10.20
2018-11-23T15:35:38.301Z,10.10
2018-11-23T15:38:10.230Z,10.10
2018-11-23T15:40:35.583Z,10.10
2018-11-23T15:43:05.027Z,10.10
2018-11-23T15:45:33.443Z,10.00
2018-11-23T15:48:01.466Z,10.10
2018-11-23T15:50:30.806Z,10.00
2018-11-23T15:52:58.913Z,10.00
2018-11-23T15:55:28.252Z,9.90
2018-11-23T15:57:57.672Z,9.90
2018-11-23T16:00:27.735Z,9.90
2018-11-23T16:02:55.775Z,9.90
2018-11-23T16:05:23.909Z,9.80
2018-11-23T16:07:53.209Z,9.80
2018-11-23T16:10:23.609Z,9.80
2018-11-23T16:12:52.818Z,9.80
2018-11-23T16:15:21.297Z,9.70
2018-11-23T16:17:49.598Z,9.80
2018-11-23T16:20:26.007Z,9.70
2018-11-23T16:22:56.142Z,9.70
2018-11-23T16:25:24.037Z,9.70
2018-11-23T16:27:54.414Z,9.70
2018-11-23T16:30:23.344Z,9.70
2018-11-23T16:32:52.206Z,9.60
2018-11-23T16:35:23.505Z,9.60
2018-11-23T16:37:51.989Z,9.60
2018-11-23T16:40:21.352Z,9.60
2018-11-23T16:42:49.348Z,9.60
2018-11-23T16:45:19.604Z,9.50
2018-11-23T16:47:47.982Z,9.50
2018-11-23T16:50:15.997Z,9.50
2018-11-23T16:52:45.889Z,9.50
2018-11-23T16:55:15.045Z,9.50
2018-11-23T16:57:44.626Z,9.40
2018-11-23T17:00:15.571Z,9.40
2018-11-23T17:02:43.789Z,9.40
2018-11-23T17:05:13.108Z,9.40
2018-11-23T17:07:41.321Z,9.40
2018-11-23T17:10:11.359Z,9.40
2018-11-23T17:12:39.896Z,9.40
2018-11-23T17:15:09.872Z,9.40
2018-11-23T17:17:37.749Z,9.40
2018-11-23T17:20:08.372Z,9.40
2018-11-23T17:22:36.736Z,9.30
2018-11-23T17:25:05.960Z,9.30
2018-11-23T17:27:33.987Z,9.30
2018-11-23T17:30:02.307Z,9.30
2018-11-23T17:32:30.590Z,9.30
2018-11-23T17:34:59.033Z,9.30
2018-11-23T17:37:27.094Z,9.30
2018-11-23T17:39:55.369Z,9.20
2018-11-23T17:42:23.810Z,9.30
2018-11-23T17:44:51.809Z,9.20
2018-11-23T17:47:19.846Z,9.20
2018-11-23T17:49:48.278Z,9.20
2018-11-23T17:52:16.611Z,9.20
2018-11-23T17:54:44.989Z,9.20
2018-11-23T17:57:13.153Z,9.10
2018-11-23T17:59:46.422Z,9.10
2018-11-23T18:02:16.889Z,9.10
2018-11-23T18:04:45.357Z,9.10
2018-11-23T18:07:13.572Z,9.10
2018-11-23T18:09:41.515Z,9.10
2018-11-23T18:12:09.398Z,9.10
2018-11-23T18:14:37.367Z,9.00
2018-11-23T18:17:05.658Z,9.00
2018-11-23T18:19:34.192Z,9.00
2018-11-23T18:22:02.541Z,9.00
2018-11-23T18:24:30.566Z,9.00
2018-11-23T18:26:58.613Z,9.00
2018-11-23T18:29:26.477Z,9.00
2018-11-23T18:31:55.114Z,8.90
2018-11-23T18:34:23.071Z,9.00
2018-11-23T18:36:51.128Z,8.90
2018-11-23T18:39:19.250Z,8.90
2018-11-23T18:41:47.381Z,8.90
2018-11-23T18:44:15.667Z,8.90
2018-11-23T18:46:43.433Z,8.90
2018-11-23T18:49:11.172Z,8.90
2018-11-23T18:51:39.150Z,8.90
2018-11-23T18:54:07.503Z,8.90
2018-11-23T18:56:35.804Z,8.80
2018-11-23T18:59:03.995Z,8.80
2018-11-23T19:01:32.333Z,8.80
2018-11-23T19:04:00.585Z,8.80
2018-11-23T19:06:28.851Z,8.80
2018-11-23T19:08:57.489Z,8.80
2018-11-23T19:11:25.772Z,8.80
2018-11-23T19:13:53.907Z,8.80
2018-11-23T19:16:22.053Z,8.80
2018-11-23T19:18:50.698Z,8.20
2018-11-23T19:21:19.366Z,8.70
2018-11-23T19:23:47.644Z,8.70
2018-11-23T19:26:17.695Z,8.70
2018-11-23T19:28:45.641Z,8.80
2018-11-23T19:31:13.683Z,8.70
2018-11-23T19:33:41.738Z,8.70
2018-11-23T19:36:09.864Z,8.70
2018-11-23T19:38:38.232Z,8.70
2018-11-23T19:41:06.365Z,8.60
2018-11-23T19:43:34.432Z,8.60
2018-11-23T19:46:02.438Z,8.60
2018-11-23T19:48:30.615Z,8.60
2018-11-23T19:50:58.967Z,8.60
2018-11-23T19:53:27.448Z,8.60
2018-11-23T19:55:55.811Z,8.60
2018-11-23T19:58:25.700Z,8.60
2018-11-23T20:00:53.495Z,8.60
2018-11-23T20:03:21.522Z,8.50
2018-11-23T20:05:49.202Z,8.50
2018-11-23T20:08:17.027Z,8.50
2018-11-23T20:10:44.905Z,8.50
2018-11-23T20:13:12.574Z,8.50
2018-11-23T20:15:40.412Z,8.50
2018-11-23T20:18:08.571Z,8.50
2018-11-23T20:20:37.107Z,8.50
2018-11-23T20:23:05.361Z,8.50
2018-11-23T20:25:33.712Z,8.50
2018-11-23T20:28:01.981Z,8.40
2018-11-23T20:30:30.095Z,8.40
2018-11-23T20:32:58.141Z,8.40
2018-11-23T20:35:26.237Z,8.40
2018-11-23T20:37:54.811Z,8.40
2018-11-23T20:40:23.359Z,8.40
2018-11-23T20:42:51.566Z,8.30
2018-11-23T20:45:20.617Z,8.40
2018-11-23T20:47:48.957Z,8.40
2018-11-23T20:50:17.675Z,8.40
2018-11-23T20:52:46.125Z,8.30
2018-11-23T20:55:17.471Z,8.40
2018-11-23T20:57:45.870Z,8.30
2018-11-23T21:00:17.891Z,8.30
2018-11-23T21:02:46.593Z,8.30
2018-11-23T21:05:16.527Z,8.30
2018-11-23T21:07:44.678Z,8.10
2018-11-23T21:10:19.931Z,8.30
2018-11-23T21:12:41.895Z,8.30
2018-11-23T21:15:22.954Z,8.20
2018-11-23T21:17:51.105Z,8.20
2018-11-23T21:20:19.297Z,8.20
2018-11-23T21:22:47.616Z,8.20
2018-11-23T21:25:15.807Z,8.20
2018-11-23T21:27:44.061Z,8.20
2018-11-23T21:30:15.050Z,8.20
2018-11-23T21:32:43.004Z,8.20
2018-11-23T21:35:11.257Z,8.10
2018-11-23T21:37:39.417Z,8.10
2018-11-23T21:40:11.808Z,8.10
2018-11-23T21:42:39.733Z,8.10
2018-11-23T21:45:13.684Z,8.10
2018-11-23T21:47:41.593Z,8.10
2018-11-23T21:50:10.911Z,8.10
2018-11-23T21:52:38.719Z,8.10
2018-11-23T21:55:08.908Z,8.10
2018-11-23T21:57:36.978Z,8.10
2018-11-23T22:00:05.912Z,8.10
2018-11-23T22:02:33.743Z,8.10
2018-11-23T22:05:01.783Z,8.10
2018-11-23T22:07:29.681Z,8.10
2018-11-23T22:09:57.406Z,8.10
2018-11-23T22:12:24.983Z,8.10
2018-11-23T22:14:52.820Z,8.10
2018-11-23T22:17:20.577Z,8.10
2018-11-23T22:19:48.385Z,8.10
2018-11-23T22:22:16.122Z,8.00
2018-11-23T22:24:43.992Z,8.00
2018-11-23T22:27:12.022Z,8.00
2018-11-23T22:29:39.741Z,8.00
2018-11-23T22:32:07.446Z,8.00
2018-11-23T22:34:35.204Z,8.00
2018-11-23T22:37:03.041Z,8.00
2018-11-23T22:39:31.429Z,8.00
2018-11-23T22:41:59.348Z,7.90
2018-11-23T22:44:27.428Z,7.90
2018-11-23T22:46:55.813Z,7.90
2018-11-23T22:49:24.589Z,7.90
2018-11-23T22:51:52.641Z,7.90
2018-11-23T22:54:21.612Z,7.90
2018-11-23T22:56:49.750Z,7.90
2018-11-23T22:59:17.989Z,7.90
2018-11-23T23:01:46.236Z,7.90
2018-11-23T23:04:14.710Z,7.90
2018-11-23T23:06:42.701Z,7.90
2018-11-23T23:09:10.861Z,7.90
2018-11-23T23:11:39.244Z,7.90
2018-11-23T23:14:07.325Z,7.80
2018-11-23T23:16:35.643Z,7.80
2018-11-23T23:19:04.155Z,7.80
2018-11-23T23:21:33.269Z,7.80
2018-11-23T23:24:01.713Z,7.80
2018-11-23T23:26:29.942Z,7.80
2018-11-23T23:28:58.039Z,7.80
2018-11-23T23:31:26.136Z,7.80
2018-11-23T23:33:54.788Z,7.80
2018-11-23T23:36:23.197Z,7.80
2018-11-23T23:38:51.269Z,7.80
2018-11-23T23:41:19.266Z,7.80
2018-11-23T23:43:48.319Z,7.80
2018-11-23T23:46:16.536Z,7.70
2018-11-23T23:48:44.854Z,7.70
2018-11-23T23:51:13.283Z,7.70
2018-11-23T23:53:41.457Z,7.70
2018-11-23T23:56:09.654Z,7.70
2018-11-23T23:58:38.181Z,7.70
